sensor_id;sensor_type;location;lat;lon;timestamp;P1;durP1;ratioP1;P2;durP2;ratioP2
40951;SDS011;26682;51.660;19.338;2023-09-30T00:01:30;12.40;;;6.65;;
40951;SDS011;26682;51.660;19.338;2023-09-30T00:04:13;12.10;;;6.03;;
40951;SDS011;26682;51.660;19.338;2023-09-30T00:06:55;12.63;;;6.05;;
40951;SDS011;26682;51.660;19.338;2023-09-30T00:09:38;10.20;;;6.50;;
40951;SDS011;26682;51.660;19.338;2023-09-30T00:12:22;11.02;;;6.13;;
40951;SDS011;26682;51.660;19.338;2023-09-30T00:15:04;12.73;;;6.40;;
40951;SDS011;26682;51.660;19.338;2023-09-30T00:17:47;11.15;;;6.65;;
40951;SDS011;26682;51.660;19.338;2023-09-30T00:20:30;7.50;;;6.20;;
40951;SDS011;26682;51.660;19.338;2023-09-30T00:23:13;11.73;;;6.15;;
40951;SDS011;26682;51.660;19.338;2023-09-30T00:25:55;12.73;;;6.55;;
40951;SDS011;26682;51.660;19.338;2023-09-30T00:28:37;12.85;;;6.53;;
40951;SDS011;26682;51.660;19.338;2023-09-30T00:31:20;10.48;;;6.78;;
40951;SDS011;26682;51.660;19.338;2023-09-30T00:34:03;9.43;;;6.05;;
40951;SDS011;26682;51.660;19.338;2023-09-30T00:36:46;7.40;;;6.20;;
40951;SDS011;26682;51.660;19.338;2023-09-30T00:39:29;11.05;;;6.63;;
40951;SDS011;26682;51.660;19.338;2023-09-30T00:42:12;11.75;;;6.35;;
40951;SDS011;26682;51.660;19.338;2023-09-30T00:44:54;11.98;;;6.20;;
40951;SDS011;26682;51.660;19.338;2023-09-30T00:47:37;10.43;;;6.18;;
40951;SDS011;26682;51.660;19.338;2023-09-30T00:50:20;9.35;;;6.10;;
40951;SDS011;26682;51.660;19.338;2023-09-30T00:53:03;10.63;;;6.45;;
40951;SDS011;26682;51.660;19.338;2023-09-30T00:55:45;10.07;;;6.30;;
40951;SDS011;26682;51.660;19.338;2023-09-30T00:58:28;14.75;;;6.88;;
40951;SDS011;26682;51.660;19.338;2023-09-30T01:01:12;10.77;;;6.78;;
40951;SDS011;26682;51.660;19.338;2023-09-30T01:03:55;9.77;;;6.65;;
40951;SDS011;26682;51.660;19.338;2023-09-30T01:06:38;10.98;;;6.88;;
40951;SDS011;26682;51.660;19.338;2023-09-30T01:09:21;9.23;;;6.45;;
40951;SDS011;26682;51.660;19.338;2023-09-30T01:12:03;14.20;;;6.60;;
40951;SDS011;26682;51.660;19.338;2023-09-30T01:14:46;13.38;;;6.60;;
40951;SDS011;26682;51.660;19.338;2023-09-30T01:17:30;18.05;;;7.00;;
40951;SDS011;26682;51.660;19.338;2023-09-30T01:20:12;10.68;;;6.70;;
40951;SDS011;26682;51.660;19.338;2023-09-30T01:25:40;11.90;;;7.18;;
40951;SDS011;26682;51.660;19.338;2023-09-30T01:28:25;17.60;;;7.63;;
40951;SDS011;26682;51.660;19.338;2023-09-30T01:31:08;9.68;;;7.70;;
40951;SDS011;26682;51.660;19.338;2023-09-30T01:33:50;14.65;;;8.45;;
40951;SDS011;26682;51.660;19.338;2023-09-30T01:36:36;10.23;;;8.35;;
40951;SDS011;26682;51.660;19.338;2023-09-30T01:39:19;15.05;;;8.45;;
40951;SDS011;26682;51.660;19.338;2023-09-30T01:42:02;10.45;;;8.52;;
40951;SDS011;26682;51.660;19.338;2023-09-30T01:44:47;12.20;;;8.73;;
40951;SDS011;26682;51.660;19.338;2023-09-30T01:47:30;10.25;;;8.10;;
40951;SDS011;26682;51.660;19.338;2023-09-30T01:50:13;10.88;;;8.48;;
40951;SDS011;26682;51.660;19.338;2023-09-30T01:52:55;11.07;;;8.45;;
40951;SDS011;26682;51.660;19.338;2023-09-30T01:55:37;11.85;;;8.45;;
40951;SDS011;26682;51.660;19.338;2023-09-30T01:58:20;11.98;;;9.07;;
40951;SDS011;26682;51.660;19.338;2023-09-30T02:01:03;11.07;;;8.90;;
40951;SDS011;26682;51.660;19.338;2023-09-30T02:03:45;12.02;;;8.85;;
40951;SDS011;26682;51.660;19.338;2023-09-30T02:06:29;10.88;;;8.23;;
40951;SDS011;26682;51.660;19.338;2023-09-30T02:09:11;10.18;;;8.70;;
40951;SDS011;26682;51.660;19.338;2023-09-30T02:11:54;10.15;;;8.75;;
40951;SDS011;26682;51.660;19.338;2023-09-30T02:14:37;11.45;;;9.15;;
40951;SDS011;26682;51.660;19.338;2023-09-30T02:17:23;13.05;;;9.40;;
40951;SDS011;26682;51.660;19.338;2023-09-30T02:20:06;10.52;;;9.05;;
40951;SDS011;26682;51.660;19.338;2023-09-30T02:22:55;12.15;;;9.23;;
40951;SDS011;26682;51.660;19.338;2023-09-30T02:25:38;13.52;;;9.45;;
40951;SDS011;26682;51.660;19.338;2023-09-30T02:28:20;18.23;;;9.10;;
40951;SDS011;26682;51.660;19.338;2023-09-30T02:31:04;14.85;;;9.20;;
40951;SDS011;26682;51.660;19.338;2023-09-30T02:33:49;10.82;;;8.95;;
40951;SDS011;26682;51.660;19.338;2023-09-30T02:36:31;11.30;;;9.15;;
40951;SDS011;26682;51.660;19.338;2023-09-30T02:39:15;11.85;;;10.00;;
40951;SDS011;26682;51.660;19.338;2023-09-30T02:41:58;12.85;;;10.50;;
40951;SDS011;26682;51.660;19.338;2023-09-30T02:44:40;11.48;;;9.50;;
40951;SDS011;26682;51.660;19.338;2023-09-30T02:47:23;17.33;;;9.15;;
40951;SDS011;26682;51.660;19.338;2023-09-30T02:50:11;14.65;;;10.40;;
40951;SDS011;26682;51.660;19.338;2023-09-30T02:52:53;12.25;;;9.35;;
40951;SDS011;26682;51.660;19.338;2023-09-30T02:55:36;15.23;;;10.50;;
40951;SDS011;26682;51.660;19.338;2023-09-30T02:58:18;14.80;;;10.75;;
40951;SDS011;26682;51.660;19.338;2023-09-30T03:01:01;13.45;;;11.43;;
40951;SDS011;26682;51.660;19.338;2023-09-30T03:03:44;14.88;;;10.50;;
40951;SDS011;26682;51.660;19.338;2023-09-30T03:06:26;12.40;;;11.05;;
40951;SDS011;26682;51.660;19.338;2023-09-30T03:09:09;11.57;;;10.38;;
40951;SDS011;26682;51.660;19.338;2023-09-30T03:11:54;13.43;;;11.05;;
40951;SDS011;26682;51.660;19.338;2023-09-30T03:14:41;12.18;;;10.98;;
40951;SDS011;26682;51.660;19.338;2023-09-30T03:17:24;15.07;;;10.43;;
40951;SDS011;26682;51.660;19.338;2023-09-30T03:20:08;15.48;;;10.43;;
40951;SDS011;26682;51.660;19.338;2023-09-30T03:22:53;13.05;;;10.82;;
40951;SDS011;26682;51.660;19.338;2023-09-30T03:25:35;12.82;;;10.50;;
40951;SDS011;26682;51.660;19.338;2023-09-30T03:28:18;14.90;;;10.95;;
40951;SDS011;26682;51.660;19.338;2023-09-30T03:31:00;13.13;;;11.02;;
40951;SDS011;26682;51.660;19.338;2023-09-30T03:33:43;14.55;;;11.20;;
40951;SDS011;26682;51.660;19.338;2023-09-30T03:36:25;16.88;;;11.88;;
40951;SDS011;26682;51.660;19.338;2023-09-30T03:39:08;17.17;;;12.10;;
40951;SDS011;26682;51.660;19.338;2023-09-30T03:41:50;13.55;;;11.65;;
40951;SDS011;26682;51.660;19.338;2023-09-30T03:44:34;15.65;;;11.57;;
40951;SDS011;26682;51.660;19.338;2023-09-30T03:47:16;15.65;;;11.73;;
40951;SDS011;26682;51.660;19.338;2023-09-30T03:49:59;15.48;;;12.15;;
40951;SDS011;26682;51.660;19.338;2023-09-30T03:52:42;13.70;;;12.30;;
40951;SDS011;26682;51.660;19.338;2023-09-30T03:55:30;16.58;;;13.55;;
40951;SDS011;26682;51.660;19.338;2023-09-30T03:58:13;14.32;;;12.82;;
40951;SDS011;26682;51.660;19.338;2023-09-30T04:00:57;14.65;;;13.05;;
40951;SDS011;26682;51.660;19.338;2023-09-30T04:03:40;16.90;;;13.43;;
40951;SDS011;26682;51.660;19.338;2023-09-30T04:06:25;19.40;;;13.82;;
40951;SDS011;26682;51.660;19.338;2023-09-30T04:09:08;15.82;;;14.02;;
40951;SDS011;26682;51.660;19.338;2023-09-30T04:11:53;18.38;;;14.00;;
40951;SDS011;26682;51.660;19.338;2023-09-30T04:14:35;15.55;;;12.85;;
40951;SDS011;26682;51.660;19.338;2023-09-30T04:17:18;15.93;;;13.90;;
40951;SDS011;26682;51.660;19.338;2023-09-30T04:20:00;17.80;;;13.30;;
40951;SDS011;26682;51.660;19.338;2023-09-30T04:22:44;18.45;;;14.77;;
40951;SDS011;26682;51.660;19.338;2023-09-30T04:25:28;15.20;;;13.57;;
40951;SDS011;26682;51.660;19.338;2023-09-30T04:28:10;16.88;;;13.98;;
40951;SDS011;26682;51.660;19.338;2023-09-30T04:30:53;16.23;;;13.63;;
40951;SDS011;26682;51.660;19.338;2023-09-30T04:33:36;24.08;;;15.05;;
40951;SDS011;26682;51.660;19.338;2023-09-30T04:36:19;16.70;;;15.00;;
40951;SDS011;26682;51.660;19.338;2023-09-30T04:39:03;18.13;;;14.65;;
40951;SDS011;26682;51.660;19.338;2023-09-30T04:41:46;18.88;;;16.67;;
40951;SDS011;26682;51.660;19.338;2023-09-30T04:44:29;20.50;;;15.45;;
40951;SDS011;26682;51.660;19.338;2023-09-30T04:47:11;19.05;;;15.57;;
40951;SDS011;26682;51.660;19.338;2023-09-30T04:49:54;21.58;;;16.33;;
40951;SDS011;26682;51.660;19.338;2023-09-30T04:52:36;22.67;;;16.95;;
40951;SDS011;26682;51.660;19.338;2023-09-30T04:55:19;18.95;;;17.00;;
40951;SDS011;26682;51.660;19.338;2023-09-30T04:58:02;21.80;;;17.15;;
40951;SDS011;26682;51.660;19.338;2023-09-30T05:00:44;23.45;;;19.38;;
40951;SDS011;26682;51.660;19.338;2023-09-30T05:03:27;23.38;;;18.42;;
40951;SDS011;26682;51.660;19.338;2023-09-30T05:06:10;22.27;;;18.23;;
40951;SDS011;26682;51.660;19.338;2023-09-30T05:08:52;25.13;;;20.80;;
40951;SDS011;26682;51.660;19.338;2023-09-30T05:11:35;23.52;;;20.25;;
40951;SDS011;26682;51.660;19.338;2023-09-30T05:14:17;25.33;;;20.40;;
40951;SDS011;26682;51.660;19.338;2023-09-30T05:17:00;24.98;;;19.75;;
40951;SDS011;26682;51.660;19.338;2023-09-30T05:19:43;23.02;;;20.63;;
40951;SDS011;26682;51.660;19.338;2023-09-30T05:22:26;25.52;;;22.50;;
40951;SDS011;26682;51.660;19.338;2023-09-30T05:25:08;36.38;;;32.08;;
40951;SDS011;26682;51.660;19.338;2023-09-30T05:27:51;27.13;;;24.15;;
40951;SDS011;26682;51.660;19.338;2023-09-30T05:30:33;27.98;;;23.65;;
40951;SDS011;26682;51.660;19.338;2023-09-30T05:33:16;28.10;;;22.75;;
40951;SDS011;26682;51.660;19.338;2023-09-30T05:35:59;24.92;;;22.17;;
40951;SDS011;26682;51.660;19.338;2023-09-30T05:38:44;26.10;;;23.17;;
40951;SDS011;26682;51.660;19.338;2023-09-30T05:41:27;26.85;;;24.05;;
40951;SDS011;26682;51.660;19.338;2023-09-30T05:44:09;25.92;;;23.17;;
40951;SDS011;26682;51.660;19.338;2023-09-30T05:46:51;26.45;;;23.55;;
40951;SDS011;26682;51.660;19.338;2023-09-30T05:49:34;28.83;;;24.65;;
40951;SDS011;26682;51.660;19.338;2023-09-30T05:52:18;28.92;;;25.10;;
40951;SDS011;26682;51.660;19.338;2023-09-30T05:55:01;31.60;;;26.48;;
40951;SDS011;26682;51.660;19.338;2023-09-30T05:57:44;30.23;;;26.92;;
40951;SDS011;26682;51.660;19.338;2023-09-30T06:00:27;31.73;;;27.45;;
40951;SDS011;26682;51.660;19.338;2023-09-30T06:03:12;31.00;;;27.53;;
40951;SDS011;26682;51.660;19.338;2023-09-30T06:05:56;32.70;;;27.38;;
40951;SDS011;26682;51.660;19.338;2023-09-30T06:08:38;30.35;;;26.33;;
40951;SDS011;26682;51.660;19.338;2023-09-30T06:11:21;30.63;;;25.63;;
40951;SDS011;26682;51.660;19.338;2023-09-30T06:14:10;26.58;;;23.73;;
40951;SDS011;26682;51.660;19.338;2023-09-30T06:16:52;30.27;;;23.95;;
40951;SDS011;26682;51.660;19.338;2023-09-30T06:19:35;25.15;;;22.52;;
40951;SDS011;26682;51.660;19.338;2023-09-30T06:22:18;25.55;;;22.70;;
40951;SDS011;26682;51.660;19.338;2023-09-30T06:25:01;25.30;;;22.30;;
40951;SDS011;26682;51.660;19.338;2023-09-30T06:27:46;25.60;;;22.75;;
40951;SDS011;26682;51.660;19.338;2023-09-30T06:30:29;23.98;;;21.40;;
40951;SDS011;26682;51.660;19.338;2023-09-30T06:33:13;26.25;;;23.48;;
40951;SDS011;26682;51.660;19.338;2023-09-30T06:35:57;24.95;;;22.35;;
40951;SDS011;26682;51.660;19.338;2023-09-30T06:38:46;25.38;;;22.85;;
40951;SDS011;26682;51.660;19.338;2023-09-30T06:41:32;26.88;;;23.10;;
40951;SDS011;26682;51.660;19.338;2023-09-30T06:44:16;28.35;;;25.35;;
40951;SDS011;26682;51.660;19.338;2023-09-30T06:46:59;28.23;;;25.23;;
40951;SDS011;26682;51.660;19.338;2023-09-30T06:49:42;29.20;;;26.30;;
40951;SDS011;26682;51.660;19.338;2023-09-30T06:52:24;31.02;;;26.02;;
40951;SDS011;26682;51.660;19.338;2023-09-30T06:55:07;33.40;;;27.38;;
40951;SDS011;26682;51.660;19.338;2023-09-30T06:57:50;29.98;;;26.95;;
40951;SDS011;26682;51.660;19.338;2023-09-30T07:00:33;28.92;;;26.05;;
40951;SDS011;26682;51.660;19.338;2023-09-30T07:03:17;30.35;;;27.15;;
40951;SDS011;26682;51.660;19.338;2023-09-30T07:06:05;35.05;;;26.42;;
40951;SDS011;26682;51.660;19.338;2023-09-30T07:08:47;30.38;;;27.10;;
40951;SDS011;26682;51.660;19.338;2023-09-30T07:11:30;29.83;;;25.98;;
40951;SDS011;26682;51.660;19.338;2023-09-30T07:14:15;34.33;;;26.70;;
40951;SDS011;26682;51.660;19.338;2023-09-30T07:16:58;28.70;;;25.60;;
40951;SDS011;26682;51.660;19.338;2023-09-30T07:19:40;29.23;;;26.02;;
40951;SDS011;26682;51.660;19.338;2023-09-30T07:22:22;29.38;;;26.25;;
40951;SDS011;26682;51.660;19.338;2023-09-30T07:25:20;31.73;;;26.67;;
40951;SDS011;26682;51.660;19.338;2023-09-30T07:28:03;28.58;;;25.40;;
40951;SDS011;26682;51.660;19.338;2023-09-30T07:30:54;30.67;;;27.23;;
40951;SDS011;26682;51.660;19.338;2023-09-30T07:33:37;28.90;;;25.80;;
40951;SDS011;26682;51.660;19.338;2023-09-30T07:36:20;28.27;;;25.20;;
40951;SDS011;26682;51.660;19.338;2023-09-30T07:41:48;29.55;;;24.50;;
40951;SDS011;26682;51.660;19.338;2023-09-30T07:44:31;28.50;;;25.38;;
40951;SDS011;26682;51.660;19.338;2023-09-30T07:47:13;27.77;;;21.88;;
40951;SDS011;26682;51.660;19.338;2023-09-30T07:50:03;24.10;;;21.50;;
40951;SDS011;26682;51.660;19.338;2023-09-30T07:52:52;28.02;;;23.27;;
40951;SDS011;26682;51.660;19.338;2023-09-30T07:55:43;26.40;;;22.40;;
40951;SDS011;26682;51.660;19.338;2023-09-30T07:58:25;23.17;;;20.80;;
40951;SDS011;26682;51.660;19.338;2023-09-30T08:01:08;23.98;;;20.17;;
40951;SDS011;26682;51.660;19.338;2023-09-30T08:03:50;23.15;;;19.40;;
40951;SDS011;26682;51.660;19.338;2023-09-30T08:06:35;22.10;;;19.60;;
40951;SDS011;26682;51.660;19.338;2023-09-30T08:09:17;22.40;;;19.58;;
40951;SDS011;26682;51.660;19.338;2023-09-30T08:12:00;19.52;;;17.63;;
40951;SDS011;26682;51.660;19.338;2023-09-30T08:14:43;22.48;;;19.42;;
40951;SDS011;26682;51.660;19.338;2023-09-30T08:17:27;19.70;;;17.25;;
40951;SDS011;26682;51.660;19.338;2023-09-30T08:20:09;18.85;;;16.67;;
40951;SDS011;26682;51.660;19.338;2023-09-30T08:22:53;18.10;;;16.20;;
40951;SDS011;26682;51.660;19.338;2023-09-30T08:25:35;18.65;;;15.02;;
40951;SDS011;26682;51.660;19.338;2023-09-30T08:28:17;18.42;;;15.18;;
40951;SDS011;26682;51.660;19.338;2023-09-30T08:31:04;19.90;;;14.90;;
40951;SDS011;26682;51.660;19.338;2023-09-30T08:33:47;16.45;;;14.50;;
40951;SDS011;26682;51.660;19.338;2023-09-30T08:36:30;18.33;;;13.70;;
40951;SDS011;26682;51.660;19.338;2023-09-30T08:39:13;17.58;;;14.73;;
40951;SDS011;26682;51.660;19.338;2023-09-30T08:41:56;18.88;;;14.18;;
40951;SDS011;26682;51.660;19.338;2023-09-30T08:44:38;16.63;;;13.23;;
40951;SDS011;26682;51.660;19.338;2023-09-30T08:47:21;16.75;;;13.63;;
40951;SDS011;26682;51.660;19.338;2023-09-30T08:50:05;16.90;;;12.43;;
40951;SDS011;26682;51.660;19.338;2023-09-30T08:52:52;15.18;;;12.18;;
40951;SDS011;26682;51.660;19.338;2023-09-30T08:55:35;13.23;;;10.45;;
40951;SDS011;26682;51.660;19.338;2023-09-30T08:58:19;18.20;;;11.30;;
40951;SDS011;26682;51.660;19.338;2023-09-30T09:01:04;17.42;;;10.77;;
40951;SDS011;26682;51.660;19.338;2023-09-30T09:06:35;18.52;;;10.27;;
40951;SDS011;26682;51.660;19.338;2023-09-30T09:09:17;17.10;;;9.90;;
40951;SDS011;26682;51.660;19.338;2023-09-30T09:12:01;15.43;;;8.45;;
40951;SDS011;26682;51.660;19.338;2023-09-30T09:14:44;13.45;;;8.15;;
40951;SDS011;26682;51.660;19.338;2023-09-30T09:17:41;5.80;;;4.00;;
40951;SDS011;26682;51.660;19.338;2023-09-30T09:20:25;5.22;;;2.20;;
40951;SDS011;26682;51.660;19.338;2023-09-30T09:23:08;4.90;;;1.88;;
40951;SDS011;26682;51.660;19.338;2023-09-30T09:25:50;5.45;;;1.95;;
40951;SDS011;26682;51.660;19.338;2023-09-30T09:28:36;7.20;;;2.45;;
40951;SDS011;26682;51.660;19.338;2023-09-30T09:31:20;6.65;;;2.97;;
40951;SDS011;26682;51.660;19.338;2023-09-30T09:34:12;3.97;;;2.25;;
40951;SDS011;26682;51.660;19.338;2023-09-30T09:36:55;5.25;;;2.35;;
40951;SDS011;26682;51.660;19.338;2023-09-30T09:39:38;8.05;;;2.58;;
40951;SDS011;26682;51.660;19.338;2023-09-30T09:42:31;3.83;;;1.60;;
40951;SDS011;26682;51.660;19.338;2023-09-30T09:45:18;4.90;;;1.90;;
40951;SDS011;26682;51.660;19.338;2023-09-30T09:48:02;6.50;;;1.90;;
40951;SDS011;26682;51.660;19.338;2023-09-30T09:50:47;4.82;;;2.30;;
40951;SDS011;26682;51.660;19.338;2023-09-30T09:53:33;4.57;;;2.22;;
40951;SDS011;26682;51.660;19.338;2023-09-30T09:56:21;6.47;;;2.25;;
40951;SDS011;26682;51.660;19.338;2023-09-30T09:59:05;8.90;;;2.83;;
40951;SDS011;26682;51.660;19.338;2023-09-30T10:01:48;5.30;;;2.67;;
40951;SDS011;26682;51.660;19.338;2023-09-30T10:04:31;7.20;;;2.55;;
40951;SDS011;26682;51.660;19.338;2023-09-30T10:07:34;6.57;;;2.75;;
40951;SDS011;26682;51.660;19.338;2023-09-30T10:10:20;5.40;;;2.42;;
40951;SDS011;26682;51.660;19.338;2023-09-30T10:13:04;5.65;;;2.85;;
40951;SDS011;26682;51.660;19.338;2023-09-30T10:15:48;6.85;;;2.90;;
40951;SDS011;26682;51.660;19.338;2023-09-30T10:18:30;14.27;;;2.85;;
40951;SDS011;26682;51.660;19.338;2023-09-30T10:25:02;8.00;;;2.42;;
40951;SDS011;26682;51.660;19.338;2023-09-30T10:31:17;10.82;;;2.53;;
40951;SDS011;26682;51.660;19.338;2023-09-30T10:36:47;6.70;;;2.65;;
40951;SDS011;26682;51.660;19.338;2023-09-30T10:42:46;6.50;;;2.17;;
40951;SDS011;26682;51.660;19.338;2023-09-30T10:45:45;6.50;;;2.30;;
40951;SDS011;26682;51.660;19.338;2023-09-30T10:51:17;7.47;;;3.20;;
40951;SDS011;26682;51.660;19.338;2023-09-30T10:54:03;9.38;;;3.03;;
40951;SDS011;26682;51.660;19.338;2023-09-30T10:56:47;6.35;;;2.50;;
40951;SDS011;26682;51.660;19.338;2023-09-30T10:59:30;10.77;;;2.63;;
40951;SDS011;26682;51.660;19.338;2023-09-30T11:02:19;5.60;;;2.53;;
40951;SDS011;26682;51.660;19.338;2023-09-30T11:05:09;8.60;;;2.95;;
40951;SDS011;26682;51.660;19.338;2023-09-30T11:07:52;10.50;;;3.00;;
40951;SDS011;26682;51.660;19.338;2023-09-30T11:10:37;5.97;;;2.58;;
40951;SDS011;26682;51.660;19.338;2023-09-30T11:13:32;6.45;;;3.03;;
40951;SDS011;26682;51.660;19.338;2023-09-30T11:16:18;6.28;;;2.90;;
40951;SDS011;26682;51.660;19.338;2023-09-30T11:19:00;9.65;;;2.75;;
40951;SDS011;26682;51.660;19.338;2023-09-30T11:21:43;7.60;;;3.17;;
40951;SDS011;26682;51.660;19.338;2023-09-30T11:24:26;11.55;;;3.28;;
40951;SDS011;26682;51.660;19.338;2023-09-30T11:27:11;9.13;;;2.55;;
40951;SDS011;26682;51.660;19.338;2023-09-30T11:29:54;7.43;;;2.58;;
40951;SDS011;26682;51.660;19.338;2023-09-30T11:32:38;9.07;;;2.55;;
40951;SDS011;26682;51.660;19.338;2023-09-30T11:35:23;9.25;;;2.75;;
40951;SDS011;26682;51.660;19.338;2023-09-30T11:38:06;6.85;;;2.42;;
40951;SDS011;26682;51.660;19.338;2023-09-30T11:41:02;5.53;;;2.20;;
40951;SDS011;26682;51.660;19.338;2023-09-30T11:44:07;7.45;;;2.00;;
40951;SDS011;26682;51.660;19.338;2023-09-30T11:46:58;9.00;;;2.10;;
40951;SDS011;26682;51.660;19.338;2023-09-30T11:49:43;9.43;;;2.20;;
40951;SDS011;26682;51.660;19.338;2023-09-30T11:52:31;5.88;;;2.00;;
40951;SDS011;26682;51.660;19.338;2023-09-30T11:55:13;5.20;;;2.30;;
40951;SDS011;26682;51.660;19.338;2023-09-30T11:57:58;6.43;;;2.08;;
40951;SDS011;26682;51.660;19.338;2023-09-30T12:00:41;6.50;;;1.90;;
40951;SDS011;26682;51.660;19.338;2023-09-30T12:03:24;5.85;;;2.20;;
40951;SDS011;26682;51.660;19.338;2023-09-30T12:06:07;4.47;;;2.00;;
40951;SDS011;26682;51.660;19.338;2023-09-30T12:08:51;6.55;;;2.17;;
40951;SDS011;26682;51.660;19.338;2023-09-30T12:11:34;11.65;;;2.67;;
40951;SDS011;26682;51.660;19.338;2023-09-30T12:14:16;9.80;;;2.28;;
40951;SDS011;26682;51.660;19.338;2023-09-30T12:16:59;7.63;;;2.00;;
40951;SDS011;26682;51.660;19.338;2023-09-30T12:19:42;5.43;;;2.22;;
40951;SDS011;26682;51.660;19.338;2023-09-30T12:22:25;6.47;;;2.15;;
40951;SDS011;26682;51.660;19.338;2023-09-30T12:25:07;8.45;;;2.58;;
40951;SDS011;26682;51.660;19.338;2023-09-30T12:27:50;9.80;;;2.38;;
40951;SDS011;26682;51.660;19.338;2023-09-30T12:30:33;4.95;;;1.88;;
40951;SDS011;26682;51.660;19.338;2023-09-30T12:33:16;7.15;;;2.15;;
40951;SDS011;26682;51.660;19.338;2023-09-30T12:35:59;6.13;;;2.08;;
40951;SDS011;26682;51.660;19.338;2023-09-30T12:38:41;6.78;;;2.53;;
40951;SDS011;26682;51.660;19.338;2023-09-30T12:41:24;9.15;;;2.10;;
40951;SDS011;26682;51.660;19.338;2023-09-30T12:44:07;8.60;;;2.40;;
40951;SDS011;26682;51.660;19.338;2023-09-30T12:46:49;7.65;;;2.53;;
40951;SDS011;26682;51.660;19.338;2023-09-30T12:49:32;9.27;;;2.60;;
40951;SDS011;26682;51.660;19.338;2023-09-30T12:52:14;5.85;;;2.20;;
40951;SDS011;26682;51.660;19.338;2023-09-30T12:54:57;7.63;;;2.35;;
40951;SDS011;26682;51.660;19.338;2023-09-30T12:57:40;6.88;;;2.38;;
40951;SDS011;26682;51.660;19.338;2023-09-30T13:00:24;6.68;;;2.10;;
40951;SDS011;26682;51.660;19.338;2023-09-30T13:03:07;8.65;;;2.75;;
40951;SDS011;26682;51.660;19.338;2023-09-30T13:05:50;7.45;;;2.67;;
40951;SDS011;26682;51.660;19.338;2023-09-30T13:08:33;6.07;;;2.33;;
40951;SDS011;26682;51.660;19.338;2023-09-30T13:11:15;8.18;;;2.58;;
40951;SDS011;26682;51.660;19.338;2023-09-30T13:13:58;7.70;;;2.20;;
40951;SDS011;26682;51.660;19.338;2023-09-30T13:16:40;9.00;;;2.45;;
40951;SDS011;26682;51.660;19.338;2023-09-30T13:22:18;9.55;;;2.88;;
40951;SDS011;26682;51.660;19.338;2023-09-30T13:25:01;6.68;;;2.72;;
40951;SDS011;26682;51.660;19.338;2023-09-30T13:27:45;10.77;;;2.67;;
40951;SDS011;26682;51.660;19.338;2023-09-30T13:30:30;7.00;;;2.20;;
40951;SDS011;26682;51.660;19.338;2023-09-30T13:33:14;11.23;;;2.92;;
40951;SDS011;26682;51.660;19.338;2023-09-30T13:35:56;8.45;;;2.90;;
40951;SDS011;26682;51.660;19.338;2023-09-30T13:38:40;10.45;;;2.58;;
40951;SDS011;26682;51.660;19.338;2023-09-30T13:41:23;9.23;;;2.80;;
40951;SDS011;26682;51.660;19.338;2023-09-30T13:44:05;11.05;;;3.05;;
40951;SDS011;26682;51.660;19.338;2023-09-30T13:46:48;6.70;;;2.58;;
40951;SDS011;26682;51.660;19.338;2023-09-30T13:49:31;7.70;;;2.75;;
40951;SDS011;26682;51.660;19.338;2023-09-30T13:52:15;11.27;;;3.55;;
40951;SDS011;26682;51.660;19.338;2023-09-30T13:54:58;11.38;;;3.53;;
40951;SDS011;26682;51.660;19.338;2023-09-30T13:57:41;8.30;;;2.95;;
40951;SDS011;26682;51.660;19.338;2023-09-30T14:00:23;9.18;;;3.10;;
40951;SDS011;26682;51.660;19.338;2023-09-30T14:03:06;8.00;;;3.17;;
40951;SDS011;26682;51.660;19.338;2023-09-30T14:05:50;9.07;;;3.47;;
40951;SDS011;26682;51.660;19.338;2023-09-30T14:08:33;6.80;;;3.00;;
40951;SDS011;26682;51.660;19.338;2023-09-30T14:11:16;8.10;;;3.33;;
40951;SDS011;26682;51.660;19.338;2023-09-30T14:13:58;10.82;;;3.17;;
40951;SDS011;26682;51.660;19.338;2023-09-30T14:16:42;10.43;;;3.70;;
40951;SDS011;26682;51.660;19.338;2023-09-30T14:19:25;8.90;;;3.00;;
40951;SDS011;26682;51.660;19.338;2023-09-30T14:22:08;11.13;;;3.47;;
40951;SDS011;26682;51.660;19.338;2023-09-30T14:24:51;9.50;;;3.10;;
40951;SDS011;26682;51.660;19.338;2023-09-30T14:27:34;11.18;;;3.13;;
40951;SDS011;26682;51.660;19.338;2023-09-30T14:30:17;9.88;;;3.00;;
40951;SDS011;26682;51.660;19.338;2023-09-30T14:32:59;8.95;;;3.50;;
40951;SDS011;26682;51.660;19.338;2023-09-30T14:35:42;6.80;;;2.55;;
40951;SDS011;26682;51.660;19.338;2023-09-30T14:38:27;10.82;;;3.42;;
40951;SDS011;26682;51.660;19.338;2023-09-30T14:41:09;7.97;;;3.15;;
40951;SDS011;26682;51.660;19.338;2023-09-30T14:43:53;8.95;;;3.60;;
40951;SDS011;26682;51.660;19.338;2023-09-30T14:46:35;8.98;;;3.10;;
40951;SDS011;26682;51.660;19.338;2023-09-30T14:49:19;7.43;;;2.75;;
40951;SDS011;26682;51.660;19.338;2023-09-30T14:52:02;7.68;;;3.20;;
40951;SDS011;26682;51.660;19.338;2023-09-30T14:54:47;9.27;;;2.95;;
40951;SDS011;26682;51.660;19.338;2023-09-30T14:57:30;7.53;;;2.72;;
40951;SDS011;26682;51.660;19.338;2023-09-30T15:00:13;9.48;;;3.28;;
40951;SDS011;26682;51.660;19.338;2023-09-30T15:02:58;7.38;;;3.63;;
40951;SDS011;26682;51.660;19.338;2023-09-30T15:05:41;9.82;;;3.33;;
40951;SDS011;26682;51.660;19.338;2023-09-30T15:08:24;11.45;;;3.00;;
40951;SDS011;26682;51.660;19.338;2023-09-30T15:11:12;4.63;;;2.47;;
40951;SDS011;26682;51.660;19.338;2023-09-30T15:13:57;8.35;;;2.60;;
40951;SDS011;26682;51.660;19.338;2023-09-30T15:16:39;9.70;;;2.88;;
40951;SDS011;26682;51.660;19.338;2023-09-30T15:19:22;11.25;;;3.78;;
40951;SDS011;26682;51.660;19.338;2023-09-30T15:22:05;11.00;;;3.30;;
40951;SDS011;26682;51.660;19.338;2023-09-30T15:25:03;12.30;;;4.25;;
40951;SDS011;26682;51.660;19.338;2023-09-30T15:27:48;13.50;;;3.58;;
40951;SDS011;26682;51.660;19.338;2023-09-30T15:30:30;9.60;;;3.55;;
40951;SDS011;26682;51.660;19.338;2023-09-30T15:33:18;8.93;;;3.08;;
40951;SDS011;26682;51.660;19.338;2023-09-30T15:36:13;12.23;;;3.60;;
40951;SDS011;26682;51.660;19.338;2023-09-30T15:39:00;14.20;;;3.55;;
40951;SDS011;26682;51.660;19.338;2023-09-30T15:41:43;10.10;;;3.85;;
40951;SDS011;26682;51.660;19.338;2023-09-30T15:44:25;11.43;;;3.97;;
40951;SDS011;26682;51.660;19.338;2023-09-30T15:47:08;11.73;;;3.95;;
40951;SDS011;26682;51.660;19.338;2023-09-30T15:49:52;13.20;;;3.60;;
40951;SDS011;26682;51.660;19.338;2023-09-30T15:52:34;11.43;;;3.47;;
40951;SDS011;26682;51.660;19.338;2023-09-30T15:55:17;13.93;;;4.07;;
40951;SDS011;26682;51.660;19.338;2023-09-30T15:58:00;12.52;;;3.80;;
40951;SDS011;26682;51.660;19.338;2023-09-30T16:00:43;8.68;;;3.00;;
40951;SDS011;26682;51.660;19.338;2023-09-30T16:03:26;11.00;;;3.40;;
40951;SDS011;26682;51.660;19.338;2023-09-30T16:06:09;11.05;;;3.17;;
40951;SDS011;26682;51.660;19.338;2023-09-30T16:08:52;7.03;;;2.95;;
40951;SDS011;26682;51.660;19.338;2023-09-30T16:11:35;8.23;;;3.03;;
40951;SDS011;26682;51.660;19.338;2023-09-30T16:14:17;9.88;;;4.07;;
40951;SDS011;26682;51.660;19.338;2023-09-30T16:17:00;10.15;;;3.15;;
40951;SDS011;26682;51.660;19.338;2023-09-30T16:19:42;12.57;;;3.25;;
40951;SDS011;26682;51.660;19.338;2023-09-30T16:22:25;10.43;;;3.47;;
40951;SDS011;26682;51.660;19.338;2023-09-30T16:25:08;7.75;;;2.92;;